Weather at Canapitsit Airport

Public forecast

Using degrees Fahrenheit for public forecast. Weather courtesy of forecast.io.

Closest aviation weather report (METAR) to Canapitsit Airport

Closest report is Martha's Vineyard Airport, 13.4 nm (24.8 km) E. Retrieved 2020/09/26 11:08 UTC (10 minutes ago):

KMVY 261108Z 00000KT M1/4SM R24/0300V0600FT FG VV001 12/12 A3015 RMK AO2 T01170117

Closest aviation forecast (TAF) to Canapitsit Airport

Closest forecast is Cape Cod Coast Guard Air Station, 22.5 nm (41.6 km) NE. Retrieved 2020/09/26 06:40 UTC (5 hours ago):

TAF KFMH 260538Z 2606/2706 21006KT P6SM OVC005 FM260800 21003KT 4SM BR BKN005 FM261000 20003KT 1SM BR BKN008 FM261200 20005KT P6SM BKN200 FM270500 19005KT 3SM BR OVC030